Sandy Point, Texas
Current Conditions -  °F | °C
As of 10:35 AM on Tuesday 27 Jan 2015 (Local Time) from KAXH Reporting Station
Clear Clear  
Wind Chill: 66°   Ceiling: Unl
Heat Index: 66°   Visibility: 10mi
Dew Point: 44°   Wind: 10mph
Humidity: 44%   Direction: 260°W
Pressure: 30.19"   Gusts: NA
Location:  29.4042°N, 95.4477°W
Report Text: KAXH 271635Z AUTO 26009KT 10SM CLR 19/07 A3019 RMK AO2 T01900065
Loading
Personal Weather Stations






























Interactive Weather Map New forecast layout! Learn more

10-Day Weather Forecast

Advertisements
Track Severe Weather on mobile